• Join FlightAware (Why Join?)
  • Login
  • US Flag GB Flag 
01:41 EDT


 

Airport Tracker/Info


-or-


 

Live Flight TrackerFlight Track Log ✈ SWA838 ✈ 03-May-2013 ✈ KPHX - KLAS

Flight Track Log - Related Links

Times and Time Zones

All times are in EDT time to prevent confusion due to time zone crossing. See the SWA838 flight status page for this flight to view local times or setup timezone preferences in your user account.

Time Position Orientation Groundspeed Altitude Reporting Facility
EDT Latitude Longitude Course Direction KTS MPH feet Rate Location/Type
09:11 33.4333 -112.0000 90° East 151 174 2,000  Level Phoenix TRACON
09:12 33.4333 -111.9500 90° East 166 191 3,200 2,460 Climbing Phoenix TRACON
09:13 33.4333 -111.8833 90° East 203 234 6,000 2,340 Climbing Phoenix TRACON
09:14 33.4856 -111.8469 30° Northeast 275 316 8,200 2,280 Climbing Albuquerque Center
09:15 33.5661 -111.8539 356° North 305 351 10,900 3,000 Climbing Albuquerque Center
09:16 33.6375 -111.9317 318° Northwest 346 398 14,300 3,420 Climbing Albuquerque Center
09:17 33.7153 -112.0114 320° Northwest 362 417 17,900 3,300 Climbing Albuquerque Center
09:18 33.7953 -112.0933 320° Northwest 373 429 21,100 3,000 Climbing Albuquerque Center
09:19 33.8786 -112.1792 319° Northwest 389 448 24,100 3,180 Climbing Albuquerque Center
09:20 33.9586 -112.2661 318° Northwest 385 443 27,600 1,920 Climbing Albuquerque Center
09:21 34.0311 -112.3603 313° West 382 440 28,000 180 Climbing Albuquerque Center
09:22 34.1047 -112.4517 314° West 380 437 28,000  Level Albuquerque Center
09:23 34.1778 -112.5447 314° West 381 438 28,000  Level Albuquerque Center
09:24 34.2519 -112.6361 314° West 381 438 28,000  Level Albuquerque Center
09:25 34.3247 -112.7283 314° West 379 436 28,000  Level Albuquerque Center
09:26 34.4122 -112.8403 313° West 380 437 28,000  Level Albuquerque Center
09:27 34.4739 -112.9169 314° West 382 440 28,000  Level Albuquerque Center
09:28 34.5622 -113.0286 314° West 382 440 28,000  Level Albuquerque Center
09:29 34.6356 -113.1233 313° West 384 442 28,000  Level Albuquerque Center
09:30 34.7075 -113.2164 313° West 379 436 28,000  Level Albuquerque Center
09:31 34.7811 -113.3097 314° West 381 438 28,000  Level Albuquerque Center
09:32 34.8528 -113.4025 313° West 378 435 28,000  Level Albuquerque Center
09:33 34.9253 -113.4975 313° West 380 437 28,000  Level Albuquerque Center
09:33 34.9256 -113.4983 292° West 379 436 28,000  Level Los Angeles Center
09:34 35.0131 -113.6117 313° West 381 438 28,000 -60 Level Los Angeles Center
09:35 35.0861 -113.7056 314° West 381 438 27,900 -960 Descending Los Angeles Center
09:36 35.1553 -113.7969 313° West 370 426 26,100 -1,860 Descending Los Angeles Center
09:37 35.2231 -113.8853 313° West 359 413 24,200 -1,920 Descending Los Angeles Center
09:38 35.3019 -113.9761 317° Northwest 358 412 22,200 -1,920 Descending Los Angeles Center
09:39 35.3808 -114.0447 325° Northwest 350 403 20,300 -1,920 Descending Los Angeles Center
09:40 35.4642 -114.1250 322° Northwest 345 397 18,300 -1,740 Descending Los Angeles Center
09:41 35.5383 -114.1906 324° Northwest 335 386 16,800 -1,740 Descending Los Angeles Center
09:42 35.5686 -114.2175 324° Northwest 335 386 16,100 -2,100 Descending Los Angeles Center
09:42 35.5853 -114.2331 323° Northwest 332 382 15,600 -1,620 Descending Los Angeles Center
09:42 35.6139 -114.2622 320° Northwest 320 368 14,900 -1,680 Descending Los Angeles Center
09:43 35.6594 -114.3033 324° Northwest 316 364 13,900 -1,680 Descending Los Angeles Center
09:43 35.6825 -114.3269 320° Northwest 313 360 13,200 -1,500 Descending Los Angeles Center
09:44 35.7261 -114.3683 322° Northwest 309 356 12,400 -1,200 Descending Los Angeles Center
09:44 35.7453 -114.3967 310° West 308 354 12,000 -1,320 Descending Los Angeles Center
09:45 35.7808 -114.4481 310° West 311 358 11,100 -1,680 Descending Los Angeles Center
09:45 35.8000 -114.4789 307° West 309 356 10,300 -1,320 Descending Los Angeles Center
09:46 35.8356 -114.5278 312° West 308 354 9,800 -1,020 Descending Los Angeles Center
09:47 35.8547 -114.5547 311° West 303 349 9,300 -1,140 Descending Los Angeles Center
09:47 35.8831 -114.6050 305° West 289 333 8,700 -1,020 Descending Los Angeles Center
09:48 35.9011 -114.6339 308° West 290 334 8,300 -720 Descending Los Angeles Center
09:48 35.9289 -114.6853 304° West 287 330 8,000 -240 Descending Los Angeles Center
09:49 35.9453 -114.7144 305° West 285 328 8,100 -240 Climbing Los Angeles Center
09:49 35.9756 -114.7681 305° West 278 320 7,800 -1,020 Descending Los Angeles Center
09:50 35.9964 -114.8036 306° West 275 316 7,100 -1,320 Descending Los Angeles Center
09:50 36.0156 -114.8425 301° West 263 303 6,500 -780 Descending Los Angeles Center
09:51 36.0367 -114.8764 308° West 266 306 6,300 -840 Descending Los Angeles Center
09:51 36.0522 -114.9100 300° West 233 268 5,700 -840 Descending Los Angeles Center
09:52 36.0656 -114.9311 308° West 255 293 5,500 -720 Descending Los Angeles Center
09:52 36.0733 -114.9775 282° West 213 245 5,000 -1,020 Descending Los Angeles Center
09:53 36.0747 -115.0069 273° West 208 239 4,500 -1,200 Descending Los Angeles Center
09:53 36.0733 -115.0361 267° West 168 193 3,800 -1,380 Descending Los Angeles Center
09:54 36.0739 -115.0650 271° West 183 211 3,100 -1,200 Descending Los Angeles Center
09:54 36.0736 -115.0972 269° West 146 168 2,500 -840 Descending Los Angeles Center
09:55 36.0736 -115.1167 270° West 166 191 2,300 -420 Descending Los Angeles Center
09:57 36.0667 -115.1500 270° West  Level FlightAware Approximate